Time;durP1;ratioP1;P1;durP2;ratioP2;P2;SDS_P1;SDS_P2;PMS_P1;PMS_P2;Temp;Humidity;BMP_temperature;BMP_pressure;BME280_temperature;BME280_humidity;BME280_pressure;Samples;Min_cycle;Max_cycle;Signal;HPM_P1;HPM_P2
2022/04/18 00:01:20;;;;;;;5.18;3.72;;;7.00;91.10;;;5.64;57.54;97642.09;5054307;28;20423;-74
2022/04/18 00:03:47;;;;;;;5.90;3.45;;;7.00;91.30;;;5.68;57.09;97642.50;5072530;28;20392;-74
2022/04/18 00:06:13;;;;;;;4.88;3.30;;;7.00;91.20;;;5.63;57.42;97640.53;5072658;28;20998;-74
2022/04/18 00:08:39;;;;;;;5.07;3.28;;;7.00;91.40;;;5.60;57.43;97640.13;5072472;28;20558;-74
2022/04/18 00:11:05;;;;;;;5.60;3.85;;;6.90;91.40;;;5.60;57.33;97634.88;5072253;28;20404;-74
2022/04/18 00:13:31;;;;;;;6.23;3.57;;;6.90;91.40;;;5.64;55.50;97641.31;5072586;28;20811;-74
2022/04/18 00:15:56;;;;;;;3.90;3.20;;;6.90;90.60;;;5.66;55.44;97631.38;5072927;28;20404;-74
2022/04/18 00:18:22;;;;;;;4.45;3.33;;;6.90;90.50;;;5.61;55.69;97629.41;5070581;28;20916;-73
2022/04/18 00:20:49;;;;;;;4.65;3.40;;;6.90;90.60;;;5.59;55.86;97634.06;5071851;28;20396;-73
2022/04/18 00:23:15;;;;;;;4.10;3.17;;;6.90;90.70;;;5.55;56.42;97629.47;5072218;28;20403;-73
2022/04/18 00:25:41;;;;;;;4.40;3.55;;;6.80;91.00;;;5.55;56.05;97632.91;5072287;28;20441;-74
2022/04/18 00:28:07;;;;;;;5.25;3.55;;;6.80;90.90;;;5.50;56.69;97624.03;5072116;28;20396;-74
2022/04/18 00:30:33;;;;;;;5.18;3.33;;;6.80;91.00;;;5.42;57.28;97625.91;5071853;28;20424;-74
2022/04/18 00:32:59;;;;;;;5.10;3.65;;;6.70;91.50;;;5.44;56.64;97626.50;5072272;28;20410;-74
2022/04/18 00:35:26;;;;;;;4.17;3.47;;;6.70;91.20;;;5.39;56.56;97626.34;5072202;28;20458;-74
2022/04/18 00:37:53;;;;;;;4.32;3.28;;;6.70;91.10;;;5.40;56.16;97621.91;5071714;28;20410;-74
2022/04/18 00:40:19;;;;;;;3.97;3.35;;;6.70;91.10;;;5.36;56.18;97626.75;5071484;28;20408;-74
2022/04/18 00:42:45;;;;;;;3.83;3.10;;;6.60;91.00;;;5.26;56.81;97626.41;5071776;28;20399;-74
2022/04/18 00:45:11;;;;;;;6.40;3.55;;;6.60;91.40;;;5.20;57.45;97626.44;5071937;28;20407;-76
2022/04/18 00:47:37;;;;;;;4.07;3.50;;;6.50;91.80;;;5.17;57.95;97619.81;5072001;28;20400;-74
2022/04/18 00:50:05;;;;;;;4.15;3.45;;;6.50;92.00;;;5.23;57.16;97618.16;5071696;28;20491;-74
2022/04/18 00:52:32;;;;;;;4.80;3.43;;;6.50;91.60;;;5.21;57.47;97615.75;5071581;28;20410;-74
2022/04/18 00:55:02;;;;;;;5.20;4.18;;;6.50;91.90;;;5.12;57.48;97613.56;5071762;28;20400;-73
2022/04/18 00:57:28;;;;;;;5.03;3.85;;;6.40;92.20;;;5.19;56.44;97612.50;5071361;28;20400;-72
2022/04/18 00:59:54;;;;;;;4.63;3.30;;;6.50;91.40;;;5.07;56.93;97604.53;5071548;28;20407;-74
2022/04/18 01:02:20;;;;;;;4.43;3.30;;;6.40;91.70;;;5.05;57.61;97614.41;5070758;28;20418;-74
2022/04/18 01:04:46;;;;;;;4.77;3.20;;;6.40;92.10;;;5.00;57.57;97611.63;5071531;28;20408;-74
2022/04/18 01:07:12;;;;;;;4.35;3.67;;;6.30;92.10;;;4.97;57.90;97604.16;5071481;28;20676;-74
2022/04/18 01:09:38;;;;;;;4.85;3.17;;;6.30;92.30;;;4.97;57.65;97598.91;5071673;28;20406;-74
2022/04/18 01:12:07;;;;;;;5.75;3.70;;;6.30;92.20;;;5.00;57.46;97597.69;5070894;28;20400;-74
2022/04/18 01:14:33;;;;;;;4.53;3.55;;;6.20;92.20;;;4.98;57.19;97604.97;5071132;28;20911;-74
2022/04/18 01:16:59;;;;;;;3.60;3.20;;;6.20;92.10;;;4.89;57.96;97595.72;5071057;28;20406;-74
2022/04/18 01:19:25;;;;;;;5.82;3.70;;;6.20;92.50;;;4.80;58.18;97600.44;5070963;28;20445;-74
2022/04/18 01:21:52;;;;;;;3.90;3.40;;;6.10;92.60;;;4.79;58.39;97598.00;5070711;28;20478;-74
2022/04/18 01:29:49;;;;;;;5.38;3.88;;;6.00;93.10;;;4.70;59.13;97586.94;5070384;28;20403;-73
2022/04/18 01:32:15;;;;;;;5.50;3.58;;;6.00;93.30;;;4.62;59.66;97587.19;5070686;28;20427;-72
2022/04/18 01:34:41;;;;;;;5.57;3.90;;;6.00;93.40;;;4.60;59.51;97579.53;5071018;28;20907;-74
2022/04/18 01:37:08;;;;;;;6.50;4.10;;;5.90;93.50;;;4.56;59.21;97577.53;5052812;28;20415;-73
2022/04/18 01:39:34;;;;;;;6.13;4.47;;;5.90;93.60;;;4.52;59.61;97574.50;5070824;28;20892;-74
2022/04/18 01:42:00;;;;;;;5.43;4.17;;;5.90;93.70;;;4.48;59.97;97570.72;5070648;28;20396;-74
2022/04/18 01:44:27;;;;;;;5.75;4.05;;;5.80;93.80;;;4.46;60.28;97564.88;5070903;28;20901;-74
2022/04/18 01:46:53;;;;;;;6.45;4.53;;;5.80;94.10;;;4.39;60.57;97569.31;5070748;28;20765;-74
2022/04/18 01:49:19;;;;;;;8.32;4.50;;;5.70;94.30;;;4.38;60.46;97562.47;5070546;28;20391;-74
2022/04/18 01:51:45;;;;;;;6.60;4.60;;;5.70;94.40;;;4.38;60.57;97567.72;5070365;28;20454;-72
2022/04/18 01:54:12;;;;;;;9.02;4.88;;;5.70;94.60;;;4.42;60.09;97568.94;5070612;28;20428;-75
2022/04/18 01:56:38;;;;;;;7.78;4.80;;;5.70;94.30;;;4.34;60.38;97574.41;5052635;28;20399;-75
2022/04/18 01:59:04;;;;;;;7.70;4.67;;;5.70;94.40;;;4.27;61.50;97569.19;5070337;28;20955;-74
2022/04/18 02:01:31;;;;;;;5.72;4.60;;;5.60;95.00;;;4.29;61.38;97571.56;5070182;28;20400;-74
2022/04/18 02:03:57;;;;;;;6.82;4.25;;;5.60;95.20;;;4.26;60.95;97574.63;5070672;28;20414;-74
2022/04/18 02:06:23;;;;;;;6.93;4.93;;;5.60;95.20;;;4.32;60.95;97571.16;5070386;28;20411;-74
2022/04/18 02:08:48;;;;;;;5.53;4.00;;;5.60;95.10;;;4.28;61.05;97568.13;5052276;28;20782;-74
2022/04/18 02:11:17;;;;;;;6.95;4.22;;;5.60;95.10;;;4.28;60.55;97569.97;5069852;28;20487;-74
2022/04/18 02:13:43;;;;;;;4.50;4.10;;;5.60;95.10;;;4.25;60.97;97565.16;5070271;28;20495;-73
2022/04/18 02:16:09;;;;;;;11.18;5.10;;;5.50;95.20;;;4.13;61.37;97565.00;5070326;28;20494;-74
2022/04/18 02:18:35;;;;;;;6.88;4.55;;;5.50;95.50;;;4.11;61.54;97559.13;5070282;28;20415;-74
2022/04/18 02:21:01;;;;;;;6.53;4.13;;;5.40;95.50;;;4.04;61.84;97560.97;5070187;28;20486;-74
2022/04/18 02:23:27;;;;;;;6.65;4.40;;;5.30;95.80;;;4.02;62.05;97557.75;5070066;28;20400;-74
2022/04/18 02:25:53;;;;;;;6.45;4.00;;;5.40;96.00;;;3.93;62.98;97551.13;5070124;28;20403;-74
2022/04/18 02:28:20;;;;;;;6.55;4.20;;;5.30;96.40;;;3.92;62.74;97549.50;5070138;28;20407;-74
2022/04/18 02:30:46;;;;;;;5.07;3.97;;;5.20;96.40;;;3.91;62.90;97547.88;5069604;28;20411;-74
2022/04/18 02:33:12;;;;;;;6.05;4.15;;;5.30;96.60;;;3.83;63.35;97548.91;5070090;28;20399;-74
2022/04/18 02:35:38;;;;;;;6.25;4.30;;;5.20;96.70;;;3.78;63.32;97540.88;5070190;28;20485;-74
2022/04/18 02:38:04;;;;;;;5.55;3.95;;;5.10;96.80;;;3.77;63.38;97543.69;5069921;28;20412;-74
2022/04/18 02:40:30;;;;;;;5.47;4.13;;;5.10;96.80;;;3.76;63.42;97542.09;5069456;28;21036;-74
2022/04/18 02:42:56;;;;;;;7.13;4.60;;;5.10;97.10;;;3.70;64.24;97541.06;5069850;28;20407;-74
2022/04/18 02:45:23;;;;;;;6.17;4.60;;;5.10;97.40;;;3.73;64.08;97540.69;5070017;28;20436;-74
2022/04/18 02:47:49;;;;;;;6.15;4.35;;;5.00;97.50;;;3.63;64.08;97535.03;5069916;28;20400;-74
2022/04/18 02:50:15;;;;;;;6.18;4.80;;;5.00;97.60;;;3.65;64.30;97534.84;5069700;28;20914;-74
2022/04/18 02:52:41;;;;;;;5.87;4.27;;;5.00;97.80;;;3.66;64.16;97536.47;5070136;28;20403;-74
2022/04/18 02:55:08;;;;;;;4.72;3.97;;;5.00;97.70;;;3.65;64.33;97534.84;5070075;28;20412;-74
2022/04/18 02:57:34;;;;;;;5.85;4.35;;;4.90;97.70;;;3.57;64.17;97529.81;5052047;28;20754;-74
2022/04/18 03:00:00;;;;;;;5.78;4.10;;;4.90;98.00;;;3.55;64.42;97534.44;5069876;28;20484;-74
2022/04/18 03:02:27;;;;;;;5.78;4.40;;;4.90;98.10;;;3.56;64.39;97531.63;5069594;28;20396;-74
2022/04/18 03:04:53;;;;;;;5.50;4.43;;;4.90;98.20;;;3.56;63.93;97526.41;5070035;28;20408;-74
2022/04/18 03:07:19;;;;;;;6.60;4.90;;;4.90;98.00;;;3.63;63.73;97524.56;5069961;28;20407;-75
2022/04/18 03:09:46;;;;;;;8.27;4.53;;;4.90;97.90;;;3.69;62.68;97523.75;5069769;28;20924;-74
2022/04/18 03:12:12;;;;;;;5.82;4.18;;;4.90;97.60;;;3.61;63.37;97523.19;5069608;28;20400;-74
2022/04/18 03:14:38;;;;;;;6.20;4.37;;;4.90;97.80;;;3.56;63.39;97518.53;5052026;28;20456;-74
2022/04/18 03:17:04;;;;;;;7.53;4.22;;;4.90;97.90;;;3.53;63.69;97516.34;5069809;28;20438;-74
2022/04/18 03:19:32;;;;;;;5.78;4.40;;;4.80;97.90;;;3.46;63.59;97510.28;5069680;28;20412;-74
2022/04/18 03:21:59;;;;;;;4.43;3.90;;;4.80;98.00;;;3.43;63.45;97514.13;5069591;28;20881;-74
2022/04/18 03:24:25;;;;;;;6.88;4.50;;;4.80;98.10;;;3.47;63.46;97511.91;5069812;28;20444;-74
2022/04/18 03:26:51;;;;;;;5.57;4.17;;;4.80;98.20;;;3.36;63.69;97517.75;5051773;28;20411;-74
2022/04/18 03:29:17;;;;;;;5.22;4.50;;;4.70;98.30;;;3.36;64.10;97510.72;5069735;28;20438;-74
2022/04/18 03:31:44;;;;;;;6.40;4.55;;;4.70;98.60;;;3.34;64.04;97511.91;5069494;28;20408;-74
2022/04/18 03:34:09;;;;;;;4.60;4.10;;;4.70;98.50;;;3.29;64.20;97509.91;5069650;28;20427;-73
2022/04/18 03:42:09;;;;;;;6.77;4.60;;;4.60;99.00;;;3.13;65.34;97510.31;5069286;28;20494;-73
2022/04/18 03:44:39;;;;;;;5.10;4.20;;;4.50;98.90;;;3.14;65.05;97508.50;5069658;28;20479;-74
2022/04/18 03:47:05;;;;;;;6.18;4.63;;;4.50;99.10;;;3.05;65.48;97508.69;5069613;28;21128;-73
2022/04/18 03:49:32;;;;;;;6.28;4.30;;;4.40;99.20;;;3.06;65.62;97496.44;5069465;28;20428;-73
2022/04/18 03:51:59;;;;;;;6.63;4.32;;;4.40;98.80;;;3.08;65.27;97504.91;5070064;28;20432;-73
2022/04/18 03:54:25;;;;;;;8.83;4.77;;;4.40;98.00;;;3.05;64.98;97505.28;5073170;28;20408;-73
2022/04/18 03:56:51;;;;;;;5.45;4.45;;;4.40;96.20;;;3.02;65.34;97505.66;5073085;28;20979;-74
2022/04/18 03:59:16;;;;;;;4.80;4.00;;;4.30;98.90;;;2.98;66.19;97505.28;5073018;28;20617;-74
2022/04/18 04:01:42;;;;;;;5.95;4.50;;;4.30;95.30;;;2.93;66.04;97509.50;5072752;28;20557;-73
2022/04/18 04:04:08;;;;;;;6.68;4.32;;;4.30;95.70;;;3.00;66.28;97507.69;5073170;28;20435;-73
2022/04/18 04:06:34;;;;;;;4.75;4.10;;;4.30;96.60;;;2.97;66.10;97506.28;5072925;28;20396;-73
2022/04/18 04:09:02;;;;;;;6.55;4.50;;;4.30;95.90;;;2.95;66.47;97504.84;5072934;28;20417;-73
2022/04/18 04:11:27;;;;;;;6.00;3.97;;;4.30;94.50;;;2.89;66.61;97506.47;5054648;28;20526;-73
2022/04/18 04:13:53;;;;;;;5.80;4.30;;;4.20;94.30;;;2.90;66.62;97509.88;5072909;28;20760;-72
2022/04/18 04:16:19;;;;;;;6.82;4.68;;;4.20;94.40;;;2.85;67.04;97514.91;5072928;28;20395;-73
2022/04/18 04:18:45;;;;;;;5.07;4.03;;;4.20;94.50;;;2.83;67.61;97501.22;5072654;28;20923;-73
2022/04/18 04:21:11;;;;;;;6.00;4.10;;;4.20;94.60;;;2.83;67.35;97499.44;5072397;28;20479;-73
2022/04/18 04:23:37;;;;;;;5.85;4.22;;;4.20;94.80;;;2.83;67.36;97506.47;5054684;28;20406;-73
2022/04/18 04:26:04;;;;;;;6.83;4.23;;;4.10;95.10;;;2.83;67.17;97506.47;5072569;28;20412;-73
2022/04/18 04:28:30;;;;;;;7.07;4.30;;;4.10;95.10;;;2.84;66.86;97500.22;5072592;28;20407;-73
2022/04/18 04:30:56;;;;;;;6.00;4.10;;;4.20;94.90;;;2.86;66.80;97499.00;5072185;28;20414;-73
2022/04/18 04:33:22;;;;;;;6.13;4.30;;;4.20;94.80;;;2.89;66.16;97497.81;5072612;28;20885;-72
2022/04/18 04:35:48;;;;;;;4.63;4.00;;;4.20;94.60;;;2.81;66.34;97493.59;5072387;28;20915;-73
2022/04/18 04:38:14;;;;;;;7.00;4.40;;;4.20;94.90;;;2.80;66.92;97496.38;5018162;22;20494;-73
2022/04/18 04:40:40;;;;;;;7.05;4.30;;;4.10;95.00;;;2.77;67.20;97496.81;4969806;28;20424;-72
2022/04/18 04:43:07;;;;;;;5.90;3.90;;;4.10;95.30;;;2.76;67.00;97500.41;4970747;28;20407;-73
2022/04/18 04:45:33;;;;;;;7.38;4.50;;;4.10;95.20;;;2.76;66.84;97498.63;4970707;28;20416;-74
2022/04/18 04:47:59;;;;;;;6.20;4.32;;;4.20;95.40;;;2.79;66.64;97500.00;4970785;28;20755;-73
2022/04/18 04:50:25;;;;;;;4.65;4.05;;;4.10;95.40;;;2.76;67.07;97489.97;4969680;28;20917;-73
2022/04/18 04:52:51;;;;;;;5.32;4.45;;;4.10;95.60;;;2.79;67.30;97497.38;4970362;28;20531;-74
2022/04/18 04:55:17;;;;;;;9.63;5.00;;;4.10;95.90;;;2.86;66.62;97485.13;4970556;28;20906;-74
2022/04/18 04:57:44;;;;;;;4.93;4.00;;;4.10;95.50;;;2.85;66.69;97491.41;4970357;28;20416;-74
2022/04/18 05:00:12;;;;;;;5.28;3.80;;;4.20;95.50;;;2.86;66.96;97493.78;4969294;28;20428;-74
2022/04/18 05:02:38;;;;;;;4.90;4.17;;;4.20;95.80;;;2.86;67.01;97488.56;4968939;28;20524;-74
2022/04/18 05:05:05;;;;;;;6.68;4.20;;;4.20;96.00;;;2.92;66.84;97495.63;4969305;28;20920;-74
2022/04/18 05:07:31;;;;;;;8.75;4.20;;;4.20;96.20;;;2.92;66.93;97487.78;4985120;28;20951;-74
2022/04/18 05:09:57;;;;;;;5.82;3.88;;;4.20;96.50;;;2.95;67.21;97489.97;4969746;28;20405;-74
2022/04/18 05:12:25;;;;;;;5.63;4.13;;;4.30;96.90;;;3.03;66.86;97491.59;4969971;28;20504;-74
2022/04/18 05:14:51;;;;;;;6.20;4.05;;;4.30;97.00;;;3.09;66.40;97482.94;4970303;28;20929;-74
2022/04/18 05:17:18;;;;;;;6.22;4.13;;;4.40;96.60;;;3.09;66.44;97494.22;4970133;28;20412;-74
2022/04/18 05:19:45;;;;;;;6.13;3.75;;;4.50;96.90;;;3.10;66.50;97489.78;4969917;28;20432;-74
2022/04/18 05:22:11;;;;;;;5.13;3.75;;;4.50;97.50;;;3.19;66.42;97480.75;4969693;28;20491;-73
2022/04/18 05:24:37;;;;;;;5.45;4.15;;;4.50;96.90;;;3.27;65.97;97480.53;4970078;28;20535;-74
2022/04/18 05:27:04;;;;;;;7.18;4.22;;;4.60;96.20;;;3.36;64.71;97483.75;4969830;28;20958;-74
2022/04/18 05:29:30;;;;;;;5.65;4.28;;;4.60;95.50;;;3.40;65.19;97487.56;4969930;28;20396;-73
2022/04/18 05:31:56;;;;;;;7.40;4.20;;;4.70;95.70;;;3.47;64.79;97497.00;4969648;28;20751;-73
2022/04/18 05:34:23;;;;;;;5.43;4.18;;;4.80;97.10;;;3.57;64.54;97496.59;4969928;28;20404;-74
2022/04/18 05:36:49;;;;;;;4.95;3.92;;;4.90;94.60;;;3.61;64.79;97491.78;4969614;28;20412;-74
2022/04/18 05:39:15;;;;;;;6.05;3.92;;;5.00;94.40;;;3.73;64.33;97498.78;4969748;28;20420;-74
2022/04/18 05:41:41;;;;;;;5.93;3.95;;;5.00;94.50;;;3.75;64.59;97502.03;4969486;28;20487;-74
2022/04/18 05:44:07;;;;;;;5.13;3.90;;;5.00;94.50;;;3.83;64.21;97501.00;4969697;28;20409;-74
2022/04/18 05:46:33;;;;;;;5.63;3.50;;;5.10;94.70;;;3.89;63.92;97500.97;4969654;28;20766;-74
2022/04/18 05:48:59;;;;;;;5.93;4.30;;;5.20;93.10;;;3.94;64.01;97497.72;4969525;28;20489;-74
2022/04/18 05:51:26;;;;;;;4.97;3.60;;;5.30;93.00;;;4.01;63.78;97501.13;4969221;28;20404;-74
2022/04/18 05:53:52;;;;;;;5.63;3.90;;;5.30;92.90;;;4.08;64.17;97503.72;4969688;28;20765;-74
2022/04/18 05:56:18;;;;;;;5.38;3.67;;;5.40;92.90;;;4.14;64.11;97503.69;4969508;28;20416;-74
2022/04/18 05:58:44;;;;;;;4.38;3.67;;;5.40;92.80;;;4.19;64.01;97501.28;4969259;28;20474;-73
2022/04/18 06:01:10;;;;;;;5.67;3.63;;;5.40;92.80;;;4.26;64.10;97502.06;4969020;28;20886;-74
2022/04/18 06:03:36;;;;;;;7.07;3.95;;;5.60;92.80;;;4.38;63.78;97498.78;4969454;28;20417;-74
2022/04/18 06:06:02;;;;;;;4.87;3.80;;;5.60;92.60;;;4.48;62.76;97499.13;4969358;28;20854;-74
2022/04/18 06:08:29;;;;;;;5.70;3.80;;;5.70;92.20;;;4.55;62.21;97492.84;4969339;28;20439;-74
2022/04/18 06:10:55;;;;;;;7.60;4.07;;;5.80;91.80;;;4.64;62.28;97499.47;4969045;28;20403;-73
2022/04/18 06:13:21;;;;;;;6.25;4.07;;;5.90;91.70;;;4.77;61.87;97501.19;4965874;28;20966;-73
2022/04/18 06:15:47;;;;;;;5.87;4.20;;;6.00;91.40;;;4.84;61.94;97506.38;4962624;28;20429;-73
2022/04/18 06:18:13;;;;;;;7.33;4.23;;;6.00;91.30;;;4.92;61.52;97498.28;4962093;28;20491;-74
2022/04/18 06:20:39;;;;;;;5.30;4.38;;;6.10;91.10;;;4.98;61.46;97500.03;4960428;28;20505;-74
2022/04/18 06:23:05;;;;;;;8.10;4.57;;;6.20;91.20;;;5.07;61.22;97498.78;4949847;29;20928;-74
2022/04/18 06:25:32;;;;;;;6.63;4.40;;;6.30;90.80;;;5.12;61.62;97498.94;4949842;28;20894;-74
2022/04/18 06:27:58;;;;;;;6.82;4.57;;;6.30;90.90;;;5.18;60.96;97494.66;4949772;28;20406;-72
2022/04/18 06:30:25;;;;;;;6.17;4.43;;;6.40;90.80;;;5.24;59.68;97496.44;4949213;29;20406;-72
2022/04/18 06:32:51;;;;;;;6.50;4.55;;;6.40;90.20;;;5.28;59.54;97480.03;4949817;28;20860;-72
2022/04/18 06:35:17;;;;;;;5.25;4.20;;;6.50;90.00;;;5.33;59.59;97490.72;4949800;28;20410;-73
2022/04/18 06:37:43;;;;;;;9.88;4.53;;;6.60;89.70;;;5.39;57.97;97487.22;4949485;28;20490;-74
2022/04/18 06:40:10;;;;;;;6.07;4.45;;;6.50;88.40;;;5.45;58.47;97480.28;4949262;29;20903;-74
2022/04/18 06:42:37;;;;;;;12.18;4.43;;;6.70;88.20;;;5.51;58.51;97483.88;4949657;28;20844;-73
2022/04/18 06:45:04;;;;;;;7.67;4.13;;;6.60;88.60;;;5.56;59.17;97479.59;4949666;28;20402;-73
2022/04/18 06:47:30;;;;;;;6.32;4.47;;;6.70;88.50;;;5.63;58.52;97479.53;4949597;28;20406;-73
2022/04/18 06:49:56;;;;;;;8.48;4.60;;;6.80;88.20;;;5.71;57.94;97480.03;4949408;29;20415;-73
2022/04/18 06:52:22;;;;;;;8.70;5.07;;;6.90;87.30;;;5.78;57.84;97483.41;4949130;29;20829;-73
2022/04/18 06:54:48;;;;;;;6.90;4.67;;;6.90;87.20;;;5.84;57.73;97485.16;4949563;29;20414;-73
2022/04/18 06:57:16;;;;;;;6.22;4.35;;;7.00;86.80;;;5.89;57.79;97479.28;4949627;28;20417;-74
2022/04/18 06:59:45;;;;;;;7.10;4.35;;;7.10;86.90;;;5.98;57.02;97477.97;4949601;29;20414;-74
2022/04/18 07:02:11;;;;;;;5.93;4.28;;;7.10;85.70;;;6.06;57.30;97477.69;4991713;28;20758;-75
2022/04/18 07:04:37;;;;;;;6.35;4.15;;;7.20;86.10;;;6.14;56.73;97481.84;5010769;28;20950;-75
2022/04/18 07:07:06;;;;;;;7.22;4.60;;;7.30;85.60;;;6.21;56.53;97478.09;4971791;28;20420;-74
2022/04/18 07:09:32;;;;;;;7.95;4.40;;;7.30;86.00;;;6.29;55.96;97473.56;4990752;28;20408;-73
2022/04/18 07:11:57;;;;;;;5.73;4.00;;;7.50;84.80;;;6.37;55.89;97474.06;5033429;28;20905;-74
2022/04/18 07:14:25;;;;;;;7.45;4.63;;;7.60;84.00;;;6.47;53.14;97476.94;5069908;28;20844;-74
2022/04/18 07:16:53;;;;;;;7.57;4.78;;;7.60;80.00;;;6.58;54.27;97476.22;5069866;28;20479;-73
2022/04/18 07:19:19;;;;;;;6.90;4.90;;;7.70;81.60;;;6.67;53.81;97481.97;5069652;28;20416;-74
2022/04/18 07:21:45;;;;;;;5.53;4.18;;;7.80;81.10;;;6.72;53.20;97476.81;5069576;28;20430;-74
2022/04/18 07:24:11;;;;;;;5.90;3.80;;;7.90;80.40;;;6.80;53.89;97475.72;5069803;28;20758;-73
2022/04/18 07:26:37;;;;;;;7.07;4.35;;;7.90;80.90;;;6.85;53.37;97473.19;5070178;28;20392;-73
2022/04/18 07:29:03;;;;;;;8.18;4.60;;;8.00;80.80;;;6.92;53.12;97481.78;5073649;28;20430;-74
2022/04/18 07:31:29;;;;;;;6.82;4.40;;;8.00;79.70;;;6.98;53.74;97479.09;5003407;28;20418;-72
2022/04/18 07:33:56;;;;;;;5.90;4.00;;;8.10;80.80;;;7.06;53.89;97479.78;4971073;28;20511;-73
2022/04/18 07:36:22;;;;;;;8.73;4.60;;;8.20;80.70;;;7.15;52.40;97481.84;4971535;28;20959;-73
2022/04/18 07:38:48;;;;;;;8.13;4.43;;;8.30;79.30;;;7.23;53.10;97483.34;4971353;28;20488;-73
2022/04/18 07:41:14;;;;;;;9.13;4.60;;;8.30;79.70;;;7.26;52.49;97480.28;4968637;28;20412;-73
2022/04/18 07:43:40;;;;;;;4.78;3.78;;;8.40;78.90;;;7.34;52.71;97479.94;4965057;28;20424;-74
2022/04/18 07:46:06;;;;;;;7.55;4.35;;;8.40;78.90;;;7.37;52.61;97479.47;4980482;28;21146;-75
2022/04/18 07:48:34;;;;;;;6.90;4.60;;;8.40;78.70;;;7.47;53.16;97486.81;4970139;28;20424;-73
2022/04/18 07:53:47;;;;;;;4.87;3.63;;;8.60;79.30;;;7.62;52.97;97484.53;4968743;28;20878;-74
2022/04/18 07:56:13;;;;;;;8.18;5.28;;;8.70;79.10;;;7.67;52.87;97493.31;4975136;28;20431;-74
2022/04/18 07:58:39;;;;;;;6.80;4.43;;;8.70;78.90;;;7.73;52.71;97487.16;4983083;28;20463;-74
2022/04/18 08:01:05;;;;;;;6.78;4.22;;;8.80;78.80;;;7.80;53.09;97484.41;4970418;28;20453;-75
2022/04/18 08:03:34;;;;;;;9.57;4.90;;;8.90;79.30;;;7.88;51.26;97486.69;4971061;28;20934;-73
2022/04/18 08:06:02;;;;;;;7.55;4.85;;;9.00;76.80;;;7.92;49.14;97489.66;4971892;28;20924;-73
2022/04/18 08:08:28;;;;;;;8.32;4.80;;;9.00;74.60;;;8.02;50.17;97490.69;4979397;28;20449;-75
2022/04/18 08:10:54;;;;;;;7.38;4.28;;;9.00;75.50;;;8.09;51.01;97488.72;4982013;28;20412;-72
2022/04/18 08:13:20;;;;;;;7.40;4.50;;;9.20;76.10;;;8.15;49.75;97490.41;4970891;28;20841;-75
2022/04/18 08:15:46;;;;;;;6.57;4.30;;;9.20;75.10;;;8.19;50.24;97485.50;4970913;28;20491;-75
2022/04/18 08:18:12;;;;;;;7.78;4.00;;;9.30;75.10;;;8.25;50.08;97481.13;4970752;28;20448;-75
2022/04/18 08:20:38;;;;;;;5.20;3.70;;;9.30;74.60;;;8.33;48.89;97488.69;4970249;28;20432;-74
2022/04/18 08:23:05;;;;;;;8.52;4.40;;;9.40;73.20;;;8.40;48.55;97484.88;4969363;28;20797;-73
2022/04/18 08:25:31;;;;;;;6.05;4.00;;;9.50;72.70;;;8.48;48.24;97487.16;4970757;28;20466;-74
2022/04/18 08:27:57;;;;;;;6.43;3.90;;;9.50;72.10;;;8.54;47.74;97491.50;4985642;28;20413;-73
2022/04/18 08:30:23;;;;;;;5.13;3.50;;;9.60;71.80;;;8.59;48.53;97493.41;4970154;28;20411;-74
2022/04/18 08:32:50;;;;;;;7.00;3.95;;;9.60;72.50;;;8.66;47.45;97482.72;4970482;28;20902;-74
2022/04/18 08:35:17;;;;;;;6.55;3.95;;;9.70;71.00;;;8.76;48.32;97491.63;4970744;28;20416;-73
2022/04/18 08:37:43;;;;;;;4.90;3.37;;;9.80;72.60;;;8.81;48.26;97491.72;4970237;28;20930;-74
2022/04/18 08:40:11;;;;;;;5.10;3.45;;;9.80;71.80;;;8.90;48.66;97492.13;4970161;28;20733;-73
2022/04/18 08:42:40;;;;;;;7.10;3.80;;;9.90;72.60;;;8.99;49.18;97497.84;4975337;28;20424;-73
2022/04/18 08:45:09;;;;;;;5.90;4.23;;;10.00;73.40;;;9.10;48.73;97489.03;4973417;28;20491;-74
2022/04/18 08:53:10;;;;;;;8.88;4.05;;;10.20;68.80;;;9.21;45.88;97493.44;4967054;28;20396;-74
2022/04/18 08:55:37;;;;;;;6.35;3.63;;;10.20;68.40;;;9.23;47.68;97494.03;4970049;28;20408;-72
2022/04/18 08:58:04;;;;;;;7.03;3.92;;;10.30;69.80;;;9.33;47.22;97504.72;4969977;28;20908;-72
2022/04/18 09:00:30;;;;;;;6.97;3.60;;;10.40;70.20;;;9.33;45.74;97494.16;4969293;28;20431;-72
2022/04/18 09:02:56;;;;;;;5.50;3.25;;;10.40;68.00;;;9.41;46.43;97485.03;4969816;28;20412;-73
2022/04/18 09:05:22;;;;;;;6.38;3.85;;;10.40;69.00;;;9.44;45.15;97489.84;4969823;28;20413;-72
2022/04/18 09:07:59;;;;;;;6.90;3.70;;;10.50;67.00;;;9.58;46.08;97483.19;4969685;28;20490;-72
2022/04/18 09:10:26;;;;;;;6.60;3.90;;;10.60;68.40;;;9.59;45.38;97479.53;4977614;28;20415;-72
2022/04/18 09:12:53;;;;;;;5.75;3.22;;;10.60;67.60;;;9.66;45.81;97473.03;4969656;28;20570;-73
2022/04/18 09:15:31;;;;;;;6.07;3.80;;;10.70;67.90;;;9.74;46.66;97477.09;4969456;28;20425;-73
2022/04/18 09:18:10;;;;;;;6.68;4.18;;;10.70;69.30;;;9.80;44.71;97464.75;4969442;28;20504;-73
2022/04/18 09:20:41;;;;;;;6.10;3.67;;;10.80;66.60;;;9.93;46.77;97472.31;4968981;28;20418;-72
2022/04/18 09:23:20;;;;;;;6.88;3.78;;;10.90;69.00;;;10.04;47.07;97474.06;4969605;28;20411;-72
2022/04/18 09:25:51;;;;;;;7.63;3.97;;;11.00;70.10;;;10.11;47.66;97469.38;4967521;28;20424;-73
2022/04/18 09:28:24;;;;;;;5.32;3.30;;;11.10;70.90;;;10.22;47.28;97468.50;4960204;28;20419;-72
2022/04/18 09:30:58;;;;;;;5.25;3.50;;;11.20;70.20;;;10.33;46.94;97477.34;4968797;28;20414;-72
2022/04/18 09:33:29;;;;;;;5.75;3.45;;;11.30;69.30;;;10.36;46.03;97469.72;4978274;28;20744;-71
2022/04/18 09:36:08;;;;;;;6.40;3.92;;;11.40;69.20;;;10.40;44.39;97460.25;4969344;28;20412;-72
2022/04/18 09:38:40;;;;;;;8.30;3.97;;;11.40;66.20;;;10.40;44.68;97457.59;4968178;28;20487;-72
2022/04/18 09:41:07;;;;;;;7.70;4.05;;;11.40;65.80;;;10.45;46.56;97451.53;4966847;28;20431;-73
2022/04/18 09:43:46;;;;;;;5.90;3.42;;;11.40;68.00;;;10.52;46.01;97454.03;4969165;28;20408;-72
2022/04/18 09:46:15;;;;;;;6.07;3.40;;;11.50;68.10;;;10.65;45.93;97453.63;4968038;28;20432;-73
2022/04/18 09:48:43;;;;;;;7.50;3.90;;;11.60;67.90;;;10.69;44.00;97457.38;4958331;28;20899;-73
2022/04/18 09:51:14;;;;;;;5.78;3.85;;;11.70;65.70;;;10.69;42.03;97444.94;4965817;28;20401;-74
2022/04/18 09:53:44;;;;;;;6.45;3.72;;;11.70;62.40;;;10.74;42.17;97457.44;4969624;28;20409;-76
2022/04/18 09:56:14;;;;;;;6.22;3.90;;;11.70;62.40;;;10.83;42.27;97450.63;4967081;28;20413;-76
2022/04/18 09:58:40;;;;;;;5.10;3.22;;;11.80;63.10;;;10.93;42.69;97453.38;4968876;28;20453;-74
2022/04/18 10:01:08;;;;;;;6.07;3.60;;;11.90;63.10;;;11.11;41.43;97439.75;4968432;28;20431;-73
2022/04/18 10:03:36;;;;;;;5.97;3.50;;;12.00;62.60;;;11.14;41.97;97439.22;4968802;28;20412;-74
2022/04/18 10:06:03;;;;;;;5.03;3.25;;;12.10;62.70;;;11.25;41.27;97437.47;4968844;28;20440;-75
2022/04/18 10:08:30;;;;;;;5.38;3.55;;;12.20;62.60;;;11.46;41.87;97438.41;4968540;28;20405;-75
2022/04/18 10:10:59;;;;;;;5.85;3.67;;;12.40;63.10;;;11.58;41.75;97434.50;4968357;28;20399;-75
2022/04/18 10:13:26;;;;;;;5.97;3.25;;;12.50;62.70;;;11.87;42.67;97436.84;4968643;28;20404;-73
2022/04/18 10:15:54;;;;;;;9.07;3.90;;;12.70;63.40;;;12.13;40.17;97430.59;4966324;28;20401;-74
2022/04/18 10:18:22;;;;;;;7.32;3.10;;;13.10;60.80;;;12.57;41.40;97424.88;4968684;28;20415;-74
2022/04/18 10:21:27;;;;;;;5.13;3.22;;;13.40;62.00;;;13.02;40.80;97424.13;4968025;28;20494;-74
2022/04/18 10:24:34;;;;;;;5.30;3.13;;;13.80;60.40;;;13.61;40.50;97420.94;4881840;29;20531;-74
2022/04/18 10:27:55;;;;;;;5.82;3.45;;;14.40;61.30;;;14.56;40.34;97419.00;4967233;28;20404;-75
2022/04/18 10:30:23;;;;;;;5.00;3.00;;;15.00;61.20;;;15.06;39.52;97415.19;4949322;28;20497;-75
2022/04/18 10:32:50;;;;;;;6.18;3.38;;;15.70;59.50;;;15.32;35.01;97418.44;4949783;28;20410;-74
2022/04/18 10:35:17;;;;;;;5.65;3.10;;;16.00;54.10;;;15.98;36.56;97415.94;4949866;29;20436;-75
2022/04/18 10:37:43;;;;;;;5.35;3.40;;;16.50;55.50;;;16.42;35.62;97418.31;4962452;23;21219;-79
2022/04/18 10:40:11;;;;;;;4.85;3.05;;;17.00;53.90;;;17.18;33.25;97413.78;4948347;29;20422;-79
2022/04/18 10:42:40;;;;;;;5.20;3.92;;;17.60;52.80;;;16.60;30.63;97406.06;4949602;28;20432;-80
2022/04/18 10:45:17;;;;;;;2.70;2.13;;;17.30;46.80;;;17.38;33.00;97408.06;4949277;29;20406;-80
2022/04/18 10:48:09;;;;;;;4.60;2.83;;;17.80;50.60;;;18.07;33.37;97407.09;4942007;29;20434;-79
2022/04/18 10:50:47;;;;;;;4.27;3.03;;;18.40;50.30;;;18.54;30.96;97405.03;4929858;29;20412;-79